Time;durP1;ratioP1;P1;durP2;ratioP2;P2;SDS_P1;SDS_P2;PMS_P1;PMS_P2;Temp;Humidity;BMP_temperature;BMP_pressure;BME280_temperature;BME280_humidity;BME280_pressure;Samples;Min_cycle;Max_cycle;Signal;HPM_P1;HPM_P2
2022/11/06 00:00:06;;;;;;;12.60;8.18;;;9.70;99.90;;;;;;4993164;28;20125;-73
2022/11/06 00:02:32;;;;;;;12.82;7.90;;;9.70;99.90;;;;;;4965322;28;20546;-74
2022/11/06 00:06:46;;;;;;;13.57;8.00;;;9.70;99.90;;;;;;4992055;28;20448;-74
2022/11/06 00:07:45;;;;;;;13.85;8.23;;;9.70;99.90;;;;;;4992988;28;20116;-73
2022/11/06 00:10:12;;;;;;;13.52;7.90;;;9.70;99.90;;;;;;4967408;28;20053;-74
2022/11/06 00:12:38;;;;;;;14.38;7.68;;;9.70;99.90;;;;;;4973529;28;20453;-75
2022/11/06 00:15:04;;;;;;;12.73;7.75;;;9.80;99.90;;;;;;4972666;28;20130;-73
2022/11/06 00:17:30;;;;;;;12.40;8.00;;;9.70;99.90;;;;;;4973725;28;20463;-73
2022/11/06 00:19:55;;;;;;;13.57;7.70;;;9.70;99.90;;;;;;4972389;28;20047;-73
2022/11/06 00:22:21;;;;;;;15.27;7.65;;;9.70;99.90;;;;;;4957415;28;20434;-75
2022/11/06 00:24:48;;;;;;;12.77;7.53;;;9.70;99.90;;;;;;4972923;28;20054;-75
2022/11/06 00:27:14;;;;;;;13.30;8.00;;;9.80;99.90;;;;;;4957482;28;20061;-74
2022/11/06 00:29:40;;;;;;;13.75;7.72;;;9.70;99.90;;;;;;4957350;28;20058;-75
2022/11/06 00:32:07;;;;;;;14.32;8.23;;;9.70;99.90;;;;;;4972473;28;20074;-75
2022/11/06 00:34:32;;;;;;;13.40;8.32;;;9.80;99.90;;;;;;4956520;28;20089;-74
2022/11/06 00:36:58;;;;;;;12.52;8.00;;;9.70;99.90;;;;;;4974300;28;20070;-75
2022/11/06 00:39:24;;;;;;;13.43;8.05;;;9.60;99.90;;;;;;4957465;28;20458;-74
2022/11/06 00:41:49;;;;;;;13.82;8.43;;;9.70;99.90;;;;;;4988426;28;20086;-74
2022/11/06 00:44:15;;;;;;;14.57;8.57;;;10.10;99.90;;;;;;4979311;28;20052;-74
2022/11/06 00:46:41;;;;;;;13.07;7.80;;;9.70;99.90;;;;;;4960335;28;20051;-73
2022/11/06 00:49:07;;;;;;;11.88;7.63;;;9.70;99.90;;;;;;4976018;28;20504;-74
2022/11/06 00:51:34;;;;;;;14.20;8.52;;;9.70;99.90;;;;;;4979450;28;20141;-74
2022/11/06 00:54:02;;;;;;;15.15;7.75;;;9.70;99.90;;;;;;4979298;28;20125;-75
2022/11/06 00:56:29;;;;;;;14.55;8.43;;;9.70;99.90;;;;;;4979819;28;20048;-74
2022/11/06 00:58:57;;;;;;;13.55;7.55;;;9.70;99.90;;;;;;4979056;28;20054;-75
2022/11/06 01:01:25;;;;;;;14.40;8.48;;;9.70;99.90;;;;;;4980462;28;20041;-74
2022/11/06 01:04:02;;;;;;;14.23;8.73;;;9.70;99.90;;;;;;4978811;28;20094;-72
2022/11/06 01:06:31;;;;;;;14.60;8.38;;;9.80;99.90;;;;;;4979110;28;20051;-72
2022/11/06 01:08:56;;;;;;;13.93;8.45;;;9.60;99.90;;;;;;4979380;28;20043;-73
2022/11/06 01:11:31;;;;;;;13.40;8.68;;;9.50;99.90;;;;;;4946777;28;20069;-73
2022/11/06 01:13:59;;;;;;;16.50;8.48;;;9.50;99.90;;;;;;4979022;28;20055;-73
2022/11/06 01:16:25;;;;;;;13.40;8.68;;;9.50;99.90;;;;;;4965285;28;20079;-74
2022/11/06 01:18:52;;;;;;;15.45;8.25;;;9.50;99.90;;;;;;4978771;28;20047;-73
2022/11/06 01:21:21;;;;;;;12.77;8.18;;;9.50;99.90;;;;;;4979548;28;20093;-74
2022/11/06 01:23:50;;;;;;;14.68;8.57;;;9.50;99.90;;;;;;4974057;28;20043;-73
2022/11/06 01:26:16;;;;;;;14.48;7.57;;;9.50;99.90;;;;;;4971540;28;20129;-73
2022/11/06 01:28:42;;;;;;;13.63;7.97;;;9.50;99.90;;;;;;4979155;28;20125;-74
2022/11/06 01:31:11;;;;;;;12.60;7.88;;;9.50;99.90;;;;;;4963169;28;20533;-74
2022/11/06 01:33:37;;;;;;;13.88;7.90;;;9.60;99.90;;;;;;4961842;28;20051;-74
2022/11/06 01:36:03;;;;;;;14.98;7.82;;;9.60;99.90;;;;;;4987018;28;20058;-73
2022/11/06 01:38:29;;;;;;;11.95;7.93;;;9.60;99.90;;;;;;4999448;28;20078;-73
2022/11/06 01:40:54;;;;;;;14.70;8.60;;;9.60;99.90;;;;;;4998885;28;20078;-73
2022/11/06 01:43:23;;;;;;;15.50;8.50;;;9.50;99.90;;;;;;4969919;28;20081;-73
2022/11/06 01:45:54;;;;;;;15.77;8.20;;;9.50;99.90;;;;;;4977777;28;20403;-72
2022/11/06 01:48:24;;;;;;;13.38;8.25;;;9.50;99.90;;;;;;4996122;28;20081;-73
2022/11/06 01:50:55;;;;;;;18.92;8.38;;;9.50;99.90;;;;;;4971240;28;20114;-73
2022/11/06 01:53:23;;;;;;;14.73;8.40;;;9.50;99.90;;;;;;4973044;28;20525;-73
2022/11/06 01:55:55;;;;;;;14.80;9.38;;;9.50;99.90;;;;;;4978121;28;20479;-73
2022/11/06 01:58:24;;;;;;;13.98;8.23;;;9.40;99.90;;;;;;4979028;28;20054;-72
2022/11/06 02:00:50;;;;;;;15.00;8.52;;;9.50;99.90;;;;;;4994217;28;20058;-72
2022/11/06 02:03:16;;;;;;;19.27;8.90;;;9.40;99.90;;;;;;4994683;28;20062;-72
2022/11/06 02:05:42;;;;;;;15.13;8.98;;;9.40;99.90;;;;;;4995331;28;20104;-72
2022/11/06 02:08:12;;;;;;;16.95;8.80;;;9.40;99.90;;;;;;4986159;28;20443;-72
2022/11/06 02:10:39;;;;;;;13.65;8.98;;;9.30;99.90;;;;;;4990134;28;20150;-73
2022/11/06 02:13:19;;;;;;;14.60;8.02;;;9.30;99.90;;;;;;4959026;28;20046;-74
2022/11/06 02:15:50;;;;;;;12.63;8.35;;;9.30;99.90;;;;;;4959275;28;20120;-73
2022/11/06 02:18:28;;;;;;;14.60;8.18;;;9.30;99.90;;;;;;4958738;28;20051;-73
2022/11/06 02:21:14;;;;;;;13.82;8.35;;;9.30;99.90;;;;;;4976307;28;20566;-72
2022/11/06 02:24:23;;;;;;;15.65;8.73;;;9.30;99.90;;;;;;4975387;28;20495;-72
2022/11/06 02:27:09;;;;;;;16.02;8.55;;;9.30;99.90;;;;;;4975968;28;20047;-73
2022/11/06 02:30:07;;;;;;;13.95;8.05;;;9.30;99.90;;;;;;4959389;28;20062;-72
2022/11/06 02:32:58;;;;;;;15.20;9.05;;;9.30;99.90;;;;;;4966444;28;20129;-71
2022/11/06 02:35:38;;;;;;;15.25;9.40;;;9.20;99.90;;;;;;4956753;28;20058;-75
2022/11/06 02:38:11;;;;;;;18.15;9.75;;;9.20;99.90;;;;;;4965622;28;20057;-72
2022/11/06 02:40:43;;;;;;;14.25;8.93;;;9.20;99.90;;;;;;4974906;28;20510;-72
2022/11/06 02:43:09;;;;;;;15.38;9.30;;;9.20;99.90;;;;;;4974665;28;20058;-74
2022/11/06 02:45:52;;;;;;;15.10;10.20;;;9.20;99.90;;;;;;4976026;28;20189;-73
2022/11/06 02:48:23;;;;;;;20.17;9.95;;;9.10;99.90;;;;;;4974577;28;20050;-73
2022/11/06 02:50:52;;;;;;;19.98;9.60;;;9.10;99.90;;;;;;4971869;28;20065;-72
2022/11/06 02:53:22;;;;;;;19.83;9.98;;;9.10;99.90;;;;;;4994460;28;20050;-73
2022/11/06 02:56:05;;;;;;;12.93;9.57;;;9.10;99.90;;;;;;4990245;28;20046;-73
2022/11/06 02:58:58;;;;;;;16.70;9.70;;;9.10;99.90;;;;;;4972048;28;20057;-73
2022/11/06 03:01:38;;;;;;;16.70;9.15;;;9.10;99.90;;;;;;4979436;28;20058;-73
2022/11/06 03:04:23;;;;;;;15.57;9.45;;;9.00;99.90;;;;;;4973579;28;20594;-74
2022/11/06 03:06:58;;;;;;;17.35;9.50;;;9.10;99.90;;;;;;4976359;28;20511;-73
2022/11/06 03:09:28;;;;;;;15.35;9.38;;;9.00;99.90;;;;;;4975297;28;20054;-73
2022/11/06 03:12:00;;;;;;;18.90;9.18;;;9.00;99.90;;;;;;4975913;28;20057;-76
2022/11/06 03:14:39;;;;;;;15.82;8.45;;;9.00;99.90;;;;;;4975387;28;20046;-73
2022/11/06 03:17:19;;;;;;;16.25;8.93;;;9.00;99.90;;;;;;4975876;28;20055;-74
2022/11/06 03:19:49;;;;;;;12.95;8.27;;;8.90;99.90;;;;;;4959762;28;20051;-75
2022/11/06 03:22:23;;;;;;;14.88;8.77;;;9.00;99.90;;;;;;4975702;28;20178;-74
2022/11/06 03:25:01;;;;;;;13.95;7.72;;;9.00;99.90;;;;;;4972426;28;20387;-74
2022/11/06 03:27:49;;;;;;;15.38;8.48;;;9.00;99.90;;;;;;4980093;28;20121;-75
2022/11/06 03:30:15;;;;;;;16.30;8.23;;;9.00;99.90;;;;;;4974110;28;20743;-73
2022/11/06 03:32:47;;;;;;;14.02;8.15;;;9.00;99.90;;;;;;4974167;28;20051;-73
2022/11/06 03:35:37;;;;;;;13.65;7.60;;;9.00;99.90;;;;;;4973176;28;20055;-73
2022/11/06 03:38:27;;;;;;;16.35;8.02;;;9.00;99.90;;;;;;4973796;28;20054;-75
2022/11/06 03:41:07;;;;;;;17.15;8.10;;;9.30;99.90;;;;;;4978132;28;20050;-72
2022/11/06 03:43:37;;;;;;;13.65;7.65;;;9.00;99.90;;;;;;4957575;28;20058;-74
2022/11/06 03:46:13;;;;;;;14.25;7.40;;;9.00;99.90;;;;;;4957750;28;20058;-74
2022/11/06 03:49:09;;;;;;;15.35;7.20;;;9.00;99.90;;;;;;4974199;28;20054;-74
2022/11/06 03:51:41;;;;;;;14.45;7.82;;;9.10;99.90;;;;;;4965299;28;20058;-73
2022/11/06 03:54:19;;;;;;;16.13;7.60;;;9.10;99.90;;;;;;4990798;28;20054;-75
2022/11/06 03:56:57;;;;;;;16.65;7.38;;;9.10;99.90;;;;;;4993393;28;20050;-73
2022/11/06 03:59:30;;;;;;;12.98;7.10;;;9.10;99.90;;;;;;4993062;28;20043;-72
2022/11/06 04:01:57;;;;;;;17.75;7.43;;;9.00;99.90;;;;;;4993369;28;20100;-72
2022/11/06 04:04:29;;;;;;;17.27;7.70;;;9.00;99.90;;;;;;4986981;28;20101;-72
2022/11/06 04:07:12;;;;;;;15.10;7.55;;;9.00;99.90;;;;;;4985223;28;20046;-73
2022/11/06 04:15:17;;;;;;;13.70;7.10;;;9.00;99.90;;;;;;4975239;28;20062;-73
2022/11/06 04:17:43;;;;;;;17.13;7.03;;;9.00;99.90;;;;;;4980041;28;20065;-73
2022/11/06 04:21:20;;;;;;;14.50;7.80;;;9.00;99.90;;;;;;4972389;28;20047;-73
2022/11/06 04:23:32;;;;;;;15.05;7.22;;;9.00;99.90;;;;;;4972928;28;20073;-73
2022/11/06 04:26:36;;;;;;;14.43;6.90;;;9.00;99.90;;;;;;4971105;28;20141;-74
2022/11/06 04:29:28;;;;;;;16.88;7.57;;;9.00;99.90;;;;;;4977596;28;20466;-72
2022/11/06 04:31:53;;;;;;;14.27;7.25;;;9.00;99.90;;;;;;4973240;28;20046;-73
2022/11/06 04:34:40;;;;;;;14.45;7.05;;;8.90;99.90;;;;;;4981902;28;20442;-73
2022/11/06 04:37:33;;;;;;;13.82;6.68;;;8.90;99.90;;;;;;4993813;28;20129;-73
2022/11/06 04:40:02;;;;;;;16.13;7.10;;;8.90;99.90;;;;;;4951155;28;20062;-73
2022/11/06 04:42:46;;;;;;;15.73;7.22;;;8.90;99.90;;;;;;4960563;28;20047;-74
2022/11/06 04:45:22;;;;;;;16.00;8.05;;;8.90;99.90;;;;;;4973052;28;20039;-74
2022/11/06 04:47:50;;;;;;;16.90;6.95;;;9.00;99.90;;;;;;4973136;28;20051;-74
2022/11/06 04:50:19;;;;;;;16.08;7.25;;;8.90;99.90;;;;;;4972871;28;20054;-74
2022/11/06 04:52:46;;;;;;;19.73;7.60;;;8.90;99.90;;;;;;4973066;28;20114;-74
2022/11/06 04:55:12;;;;;;;18.40;7.50;;;8.90;99.90;;;;;;4972805;28;20059;-73
2022/11/06 04:57:38;;;;;;;15.00;7.55;;;8.90;99.90;;;;;;4972796;28;20051;-74
2022/11/06 05:00:05;;;;;;;17.95;8.80;;;8.90;99.90;;;;;;4973236;28;20062;-73
2022/11/06 05:02:31;;;;;;;16.75;7.88;;;8.90;99.90;;;;;;4975857;28;20180;-73
2022/11/06 05:04:56;;;;;;;17.15;7.28;;;8.90;99.90;;;;;;4975668;28;20121;-73
2022/11/06 05:07:22;;;;;;;18.27;6.93;;;8.90;99.90;;;;;;4975852;28;20399;-73
2022/11/06 05:09:48;;;;;;;16.75;7.53;;;8.90;99.90;;;;;;4992412;28;20046;-73
2022/11/06 05:12:13;;;;;;;16.65;7.25;;;8.90;99.90;;;;;;4993292;28;20478;-74
2022/11/06 05:14:39;;;;;;;14.50;7.05;;;8.80;99.90;;;;;;4972591;28;20126;-73
2022/11/06 05:17:05;;;;;;;16.45;7.05;;;8.80;99.90;;;;;;4972734;28;20125;-73
2022/11/06 05:19:31;;;;;;;17.27;6.43;;;8.80;99.90;;;;;;4972379;28;20073;-73
2022/11/06 05:24:41;;;;;;;17.15;6.82;;;8.80;99.90;;;;;;4962045;28;20065;-72
2022/11/06 05:27:06;;;;;;;13.43;6.82;;;8.80;99.90;;;;;;4976664;28;20051;-73
2022/11/06 05:29:32;;;;;;;14.82;6.57;;;8.80;99.90;;;;;;4976282;28;20058;-72
2022/11/06 05:31:58;;;;;;;14.88;6.43;;;9.10;99.90;;;;;;4959971;28;20555;-73
2022/11/06 05:34:23;;;;;;;13.18;6.68;;;8.80;99.90;;;;;;4975188;28;20050;-72
2022/11/06 05:36:49;;;;;;;12.55;5.88;;;8.80;99.90;;;;;;4977121;28;20051;-73
2022/11/06 05:39:15;;;;;;;15.43;6.13;;;8.80;99.90;;;;;;4976418;28;20050;-73
2022/11/06 05:41:40;;;;;;;10.52;5.65;;;8.80;99.90;;;;;;4975597;28;20055;-73
2022/11/06 05:44:06;;;;;;;14.50;5.95;;;8.90;99.90;;;;;;4976043;28;20105;-73
2022/11/06 05:46:32;;;;;;;16.25;5.30;;;8.90;99.90;;;;;;4960283;28;20089;-73
2022/11/06 05:48:58;;;;;;;11.63;5.78;;;8.90;99.90;;;;;;4959071;28;20047;-72
2022/11/06 05:51:24;;;;;;;15.20;5.05;;;8.90;99.90;;;;;;4975824;28;20050;-72
2022/11/06 05:53:49;;;;;;;11.50;5.43;;;8.90;99.90;;;;;;4991193;28;20050;-73
2022/11/06 05:56:15;;;;;;;12.75;5.30;;;8.90;99.90;;;;;;4979547;28;20129;-74
2022/11/06 05:58:41;;;;;;;13.18;4.78;;;8.90;99.90;;;;;;4995357;28;20490;-73
2022/11/06 06:01:07;;;;;;;12.60;4.53;;;8.90;99.90;;;;;;4995230;28;20049;-72
2022/11/06 06:03:32;;;;;;;15.00;4.80;;;8.90;99.90;;;;;;4966635;28;20110;-73
2022/11/06 06:05:58;;;;;;;12.93;4.57;;;9.00;99.90;;;;;;4985183;28;20507;-73
2022/11/06 06:08:23;;;;;;;11.43;4.20;;;8.90;99.90;;;;;;4981991;28;20395;-72
2022/11/06 06:10:49;;;;;;;9.82;4.53;;;9.00;99.90;;;;;;4977967;28;20054;-73
2022/11/06 06:13:15;;;;;;;12.50;4.55;;;9.00;99.90;;;;;;4994569;28;20058;-73
2022/11/06 06:15:42;;;;;;;13.43;4.45;;;9.00;99.90;;;;;;4996053;28;20053;-73
2022/11/06 06:18:09;;;;;;;11.05;4.28;;;9.00;99.90;;;;;;4975835;28;20395;-72
2022/11/06 06:20:35;;;;;;;11.82;4.10;;;9.00;99.90;;;;;;4964382;28;20061;-73
2022/11/06 06:23:01;;;;;;;12.85;4.22;;;9.00;99.90;;;;;;4959304;28;20054;-72
2022/11/06 06:25:28;;;;;;;12.25;4.85;;;9.00;99.90;;;;;;4952952;28;20545;-72
2022/11/06 06:27:54;;;;;;;9.88;4.00;;;9.10;99.90;;;;;;4968225;28;20058;-73
2022/11/06 06:30:21;;;;;;;11.13;4.10;;;9.10;99.90;;;;;;4975469;28;20057;-72
2022/11/06 06:32:48;;;;;;;13.60;4.38;;;9.00;99.90;;;;;;4959140;28;20051;-71
2022/11/06 06:35:13;;;;;;;12.27;3.97;;;9.10;99.90;;;;;;4971868;28;20051;-74
2022/11/06 06:37:39;;;;;;;11.60;3.90;;;9.00;99.90;;;;;;4981038;28;20042;-72
2022/11/06 06:40:06;;;;;;;11.20;4.30;;;9.10;99.90;;;;;;4959737;28;20487;-72
2022/11/06 06:42:31;;;;;;;12.65;3.90;;;9.10;99.90;;;;;;4987079;28;20121;-73
2022/11/06 06:44:57;;;;;;;11.93;3.72;;;9.10;99.90;;;;;;4987829;28;20086;-73
2022/11/06 06:47:23;;;;;;;9.98;3.70;;;9.10;99.90;;;;;;4993855;28;20053;-72
2022/11/06 06:49:49;;;;;;;13.90;4.00;;;9.10;99.90;;;;;;4993941;28;20046;-73
2022/11/06 06:52:14;;;;;;;13.02;3.70;;;9.10;99.90;;;;;;4993064;28;20066;-75
2022/11/06 06:54:40;;;;;;;9.43;3.53;;;9.10;99.90;;;;;;4995383;28;20039;-74
2022/11/06 06:57:09;;;;;;;11.25;3.95;;;9.20;99.90;;;;;;4976046;28;20062;-73
2022/11/06 06:59:35;;;;;;;10.25;3.67;;;9.20;99.90;;;;;;4969609;28;20042;-72
2022/11/06 07:02:00;;;;;;;10.80;3.85;;;9.20;99.90;;;;;;4995466;28;20050;-74
2022/11/06 07:04:26;;;;;;;10.65;3.60;;;9.20;99.90;;;;;;4975331;28;20043;-73
2022/11/06 07:06:53;;;;;;;12.45;4.00;;;9.10;99.90;;;;;;4974665;28;20046;-72
2022/11/06 07:09:20;;;;;;;12.88;4.00;;;9.20;99.90;;;;;;4987529;28;20486;-72
2022/11/06 07:11:45;;;;;;;10.68;3.70;;;9.20;99.90;;;;;;4974257;28;20463;-75
2022/11/06 07:14:11;;;;;;;12.18;3.60;;;9.30;99.90;;;;;;4973969;28;20090;-74
2022/11/06 07:16:37;;;;;;;9.52;3.67;;;9.30;99.90;;;;;;4988378;28;20038;-74
2022/11/06 07:19:03;;;;;;;11.98;3.92;;;9.30;99.90;;;;;;4963878;28;20055;-73
2022/11/06 07:21:28;;;;;;;10.80;3.58;;;9.30;99.90;;;;;;4970078;28;20043;-74
2022/11/06 07:23:54;;;;;;;9.80;3.60;;;9.30;99.90;;;;;;4975249;28;20047;-73
2022/11/06 07:26:20;;;;;;;10.35;3.60;;;9.30;99.90;;;;;;4974361;28;20120;-73
2022/11/06 07:28:45;;;;;;;8.88;3.30;;;9.40;99.90;;;;;;4974006;28;20050;-73
2022/11/06 07:31:11;;;;;;;10.48;3.70;;;9.40;99.90;;;;;;4958075;28;20557;-73
2022/11/06 07:33:37;;;;;;;12.00;4.22;;;9.40;99.90;;;;;;4973430;28;20053;-73
2022/11/06 07:36:13;;;;;;;9.80;3.53;;;9.40;99.90;;;;;;4948495;28;20089;-74
2022/11/06 07:38:41;;;;;;;10.35;3.50;;;9.50;99.90;;;;;;4970978;28;20046;-73
2022/11/06 07:41:09;;;;;;;10.32;3.30;;;9.50;99.90;;;;;;4974300;28;20073;-73
2022/11/06 07:43:35;;;;;;;9.60;3.10;;;9.50;99.90;;;;;;4972805;28;20121;-76
2022/11/06 07:46:04;;;;;;;10.50;3.30;;;9.50;99.90;;;;;;4982344;28;20051;-74
2022/11/06 07:48:31;;;;;;;11.00;3.55;;;9.60;99.90;;;;;;4970782;28;20095;-74
2022/11/06 07:50:57;;;;;;;9.88;3.10;;;9.60;99.90;;;;;;4970908;28;20081;-75
2022/11/06 07:53:23;;;;;;;10.57;3.03;;;9.60;99.90;;;;;;4958481;28;20142;-74
2022/11/06 07:55:50;;;;;;;10.95;3.13;;;9.60;99.90;;;;;;4973912;28;20078;-74
2022/11/06 07:58:16;;;;;;;12.05;3.67;;;9.70;99.90;;;;;;4970733;28;20054;-74
2022/11/06 08:01:01;;;;;;;10.77;3.10;;;9.80;99.90;;;;;;4960536;28;20163;-76
2022/11/06 08:03:30;;;;;;;9.48;3.00;;;9.80;99.90;;;;;;4972450;28;20055;-76
2022/11/06 08:05:58;;;;;;;11.65;2.80;;;9.80;99.90;;;;;;4973566;28;20057;-75
2022/11/06 08:08:23;;;;;;;9.45;3.00;;;9.80;99.90;;;;;;4973585;28;20118;-74
2022/11/06 08:10:50;;;;;;;9.57;3.20;;;9.90;99.90;;;;;;4971860;28;20558;-74
2022/11/06 08:13:17;;;;;;;9.98;3.38;;;9.90;99.90;;;;;;4973657;28;20055;-73
2022/11/06 08:15:43;;;;;;;12.60;2.90;;;9.90;99.90;;;;;;4954909;28;20408;-75
2022/11/06 08:18:10;;;;;;;9.30;3.03;;;9.90;99.90;;;;;;4956180;28;20491;-74
2022/11/06 08:20:37;;;;;;;9.70;3.00;;;9.90;99.90;;;;;;4964784;28;20050;-75
2022/11/06 08:23:05;;;;;;;8.23;2.85;;;10.00;99.90;;;;;;4957069;28;20058;-75
2022/11/06 08:25:31;;;;;;;8.65;2.75;;;10.00;99.90;;;;;;4969079;28;20047;-75
2022/11/06 08:27:58;;;;;;;12.10;2.95;;;10.10;99.90;;;;;;4969749;28;20043;-73
2022/11/06 08:30:26;;;;;;;9.63;2.80;;;10.30;99.90;;;;;;4957907;28;20454;-74
2022/11/06 08:32:52;;;;;;;7.28;2.55;;;10.30;99.90;;;;;;4949443;28;20045;-73
2022/11/06 08:35:18;;;;;;;9.93;2.85;;;10.40;99.90;;;;;;4953500;28;20039;-75
2022/11/06 08:37:43;;;;;;;9.23;2.58;;;10.40;99.90;;;;;;4968017;28;20533;-72
2022/11/06 08:40:10;;;;;;;9.35;2.70;;;10.40;99.90;;;;;;4962136;28;20054;-75
2022/11/06 08:42:36;;;;;;;9.02;2.75;;;10.50;99.90;;;;;;4960532;28;20059;-75
2022/11/06 08:45:01;;;;;;;12.68;2.88;;;10.50;99.90;;;;;;4979958;28;20368;-75
2022/11/06 08:47:27;;;;;;;8.38;2.85;;;10.50;99.90;;;;;;4956854;28;20043;-75
2022/11/06 08:49:54;;;;;;;8.02;2.70;;;10.50;99.90;;;;;;4956048;28;20057;-76
2022/11/06 08:52:20;;;;;;;8.85;2.45;;;10.60;99.90;;;;;;4940104;28;20055;-76
2022/11/06 08:54:46;;;;;;;8.88;2.67;;;10.60;99.90;;;;;;4958792;28;20058;-75
2022/11/06 08:57:12;;;;;;;9.20;3.05;;;10.70;99.90;;;;;;4972695;28;20122;-75
2022/11/06 08:59:38;;;;;;;8.75;2.63;;;10.70;99.90;;;;;;4958578;28;20126;-73
2022/11/06 09:02:04;;;;;;;7.97;2.65;;;10.70;99.90;;;;;;4958599;28;20129;-74
2022/11/06 09:04:29;;;;;;;10.30;2.72;;;10.90;99.90;;;;;;4981289;28;20042;-74
2022/11/06 09:06:56;;;;;;;11.75;3.00;;;11.10;99.90;;;;;;4984917;28;20422;-74
2022/11/06 09:09:22;;;;;;;8.32;2.53;;;11.20;99.90;;;;;;4973959;28;20505;-75
2022/11/06 09:11:48;;;;;;;9.23;2.50;;;11.40;99.90;;;;;;4982402;28;20039;-73
2022/11/06 09:14:13;;;;;;;9.40;2.50;;;11.60;99.90;;;;;;4958002;28;20059;-74
2022/11/06 09:16:39;;;;;;;10.45;2.50;;;11.80;99.90;;;;;;4959183;28;20046;-74
2022/11/06 09:19:05;;;;;;;9.93;2.67;;;11.90;99.90;;;;;;4941922;28;20058;-74
2022/11/06 09:21:31;;;;;;;7.65;2.30;;;12.00;99.90;;;;;;4975487;28;20039;-73
2022/11/06 09:23:57;;;;;;;8.38;2.38;;;12.10;99.90;;;;;;4957752;28;20051;-73
2022/11/06 09:26:22;;;;;;;9.07;2.45;;;12.10;99.90;;;;;;4957325;28;20058;-73
2022/11/06 09:28:48;;;;;;;9.52;2.60;;;12.10;99.90;;;;;;4956973;28;20157;-74
2022/11/06 09:31:14;;;;;;;8.02;2.15;;;12.10;99.90;;;;;;4943087;28;20048;-73
2022/11/06 09:33:40;;;;;;;10.13;2.42;;;12.20;99.90;;;;;;4973837;28;20105;-74
2022/11/06 09:36:06;;;;;;;8.82;2.20;;;12.20;99.90;;;;;;4976396;28;20372;-74
2022/11/06 09:38:32;;;;;;;8.63;2.65;;;12.30;99.90;;;;;;4973864;28;20054;-74
2022/11/06 09:41:00;;;;;;;8.13;2.75;;;12.50;99.90;;;;;;4960122;28;20586;-73
2022/11/06 09:43:53;;;;;;;10.32;2.60;;;12.30;99.90;;;;;;4959691;28;20042;-74
2022/11/06 09:46:29;;;;;;;7.75;2.33;;;12.30;99.90;;;;;;4976194;28;20141;-74
2022/11/06 09:48:58;;;;;;;7.53;2.53;;;12.20;99.90;;;;;;4975189;28;20399;-74
2022/11/06 09:52:01;;;;;;;8.35;2.50;;;12.10;99.90;;;;;;4975387;28;20479;-73
2022/11/06 09:54:35;;;;;;;;;;;12.00;99.90;;;;;;4957854;28;20047;-74
2022/11/06 09:57:08;;;;;;;8.85;2.53;;;12.00;99.90;;;;;;4971268;28;19972;-74
2022/11/06 09:59:36;;;;;;;8.85;2.60;;;11.90;99.90;;;;;;4968648;28;20453;-74
2022/11/06 10:02:14;;;;;;;7.90;2.10;;;11.90;99.90;;;;;;4957331;28;20097;-71
2022/11/06 10:05:14;;;;;;;9.65;2.60;;;11.90;99.90;;;;;;4952851;28;20054;-73
2022/11/06 10:07:42;;;;;;;7.97;2.42;;;11.90;99.90;;;;;;4960831;28;20059;-73
2022/11/06 10:10:15;;;;;;;9.75;2.63;;;11.90;99.90;;;;;;4951605;28;20058;-74
2022/11/06 10:12:56;;;;;;;9.20;2.80;;;11.90;99.90;;;;;;4973365;28;20057;-74
2022/11/06 10:15:58;;;;;;;7.95;2.55;;;11.90;99.90;;;;;;4978685;28;20130;-75
2022/11/06 10:18:54;;;;;;;6.97;2.20;;;11.90;99.90;;;;;;4984815;28;20125;-74
2022/11/06 10:21:24;;;;;;;9.18;2.53;;;11.90;99.90;;;;;;4958346;28;20200;-75
2022/11/06 10:23:56;;;;;;;10.07;2.50;;;12.00;99.90;;;;;;4973886;28;20055;-74
2022/11/06 10:26:36;;;;;;;;;;;12.00;99.90;;;;;;4958472;28;20039;-74
2022/11/06 10:29:28;;;;;;;7.70;2.30;;;12.00;99.90;;;;;;4959121;28;19922;-74
2022/11/06 10:32:19;;;;;;;8.50;2.55;;;12.00;99.90;;;;;;4958334;28;20054;-74
2022/11/06 10:34:48;;;;;;;8.30;2.60;;;12.10;99.90;;;;;;4957048;28;20054;-74
2022/11/06 10:37:20;;;;;;;7.95;2.22;;;12.20;99.90;;;;;;4974071;28;20057;-73
2022/11/06 10:39:48;;;;;;;7.20;2.30;;;12.30;99.90;;;;;;4957710;28;20047;-74
2022/11/06 10:42:17;;;;;;;9.00;2.38;;;12.40;99.90;;;;;;4982877;28;20038;-74
2022/11/06 10:44:47;;;;;;;8.50;2.40;;;12.50;99.90;;;;;;4973956;28;20075;-74
2022/11/06 10:47:16;;;;;;;7.68;2.13;;;12.60;99.90;;;;;;4971416;28;20051;-75
2022/11/06 10:49:52;;;;;;;7.75;2.20;;;12.80;99.90;;;;;;4957070;28;20439;-74
2022/11/06 10:53:03;;;;;;;8.63;1.98;;;13.00;99.90;;;;;;4971050;28;20047;-74
2022/11/06 10:56:19;;;;;;;7.35;1.88;;;13.00;99.90;;;;;;4888588;29;20051;-74
2022/11/06 10:58:45;;;;;;;8.35;2.13;;;13.00;99.90;;;;;;4914584;29;20152;-74
2022/11/06 11:01:13;;;;;;;7.40;1.92;;;12.80;99.90;;;;;;4963367;28;20129;-73
2022/11/06 11:03:42;;;;;;;7.53;2.03;;;12.80;99.90;;;;;;4959189;28;20047;-74
2022/11/06 11:06:08;;;;;;;9.23;2.08;;;12.70;99.90;;;;;;4973703;28;20051;-73
2022/11/06 11:08:42;;;;;;;8.27;2.00;;;12.70;99.90;;;;;;4974857;28;20085;-74
2022/11/06 11:11:14;;;;;;;6.95;2.00;;;12.60;99.90;;;;;;4973189;28;20502;-73
2022/11/06 11:13:41;;;;;;;7.43;1.85;;;12.50;99.90;;;;;;4974278;28;20058;-74
2022/11/06 11:16:17;;;;;;;8.57;2.00;;;12.50;99.90;;;;;;4973889;28;20134;-74
2022/11/06 11:18:44;;;;;;;7.75;1.90;;;12.50;99.90;;;;;;4972508;28;20086;-74
2022/11/06 11:21:15;;;;;;;6.35;1.60;;;12.60;99.90;;;;;;4975161;28;20055;-74
2022/11/06 11:23:41;;;;;;;7.57;1.92;;;12.70;99.90;;;;;;4974076;28;20120;-74
2022/11/06 11:26:43;;;;;;;8.13;1.90;;;12.90;99.90;;;;;;4974446;28;20134;-74
2022/11/06 11:29:19;;;;;;;;;;;13.00;99.90;;;;;;4963496;28;20055;-74
2022/11/06 11:31:49;;;;;;;7.25;2.03;;;13.10;99.90;;;;;;4973586;28;20386;-74
2022/11/06 11:34:19;;;;;;;9.27;1.80;;;13.20;99.90;;;;;;4972330;28;20050;-73
2022/11/06 11:37:03;;;;;;;7.22;1.70;;;13.30;99.90;;;;;;4974260;28;20059;-73
2022/11/06 11:39:43;;;;;;;6.25;1.63;;;13.30;99.90;;;;;;4973992;28;20106;-74
2022/11/06 11:42:19;;;;;;;6.50;1.73;;;13.40;99.90;;;;;;4973915;28;20145;-71
2022/11/06 11:44:45;;;;;;;6.70;1.48;;;13.40;99.90;;;;;;4957691;28;20081;-74
2022/11/06 11:47:23;;;;;;;9.43;1.80;;;13.40;99.90;;;;;;4973338;28;20070;-72
2022/11/06 11:49:49;;;;;;;8.13;1.88;;;13.40;99.90;;;;;;4956814;28;20090;-70
2022/11/06 11:52:20;;;;;;;8.38;1.60;;;13.40;99.90;;;;;;4956822;28;20042;-74
2022/11/06 11:54:50;;;;;;;8.48;1.95;;;13.30;99.90;;;;;;4964202;28;20391;-73
2022/11/06 11:57:25;;;;;;;5.47;1.65;;;13.20;99.90;;;;;;4971254;28;20050;-74
2022/11/06 11:59:55;;;;;;;8.88;2.03;;;13.20;99.90;;;;;;4973845;28;20051;-75
2022/11/06 12:02:30;;;;;;;8.20;1.98;;;13.10;99.90;;;;;;4957559;28;20082;-75
2022/11/06 12:05:04;;;;;;;8.63;2.00;;;13.10;99.90;;;;;;4963878;28;20047;-74
2022/11/06 12:07:32;;;;;;;5.45;1.80;;;13.10;99.90;;;;;;4970218;28;20059;-73
2022/11/06 12:09:59;;;;;;;7.05;1.80;;;13.00;99.90;;;;;;4973556;28;20054;-75
2022/11/06 12:12:35;;;;;;;8.07;2.00;;;13.00;99.90;;;;;;4973074;28;20129;-73
2022/11/06 12:15:21;;;;;;;6.20;1.83;;;13.00;99.90;;;;;;4973328;28;20124;-74
2022/11/06 12:17:56;;;;;;;8.75;1.77;;;13.00;99.90;;;;;;4973655;28;20467;-73
2022/11/06 12:20:33;;;;;;;8.25;1.90;;;13.00;99.90;;;;;;4960955;28;20043;-74
2022/11/06 12:23:01;;;;;;;8.02;2.00;;;13.00;99.90;;;;;;4983924;28;20058;-74
2022/11/06 12:25:40;;;;;;;7.90;1.85;;;13.00;99.90;;;;;;4973254;28;20058;-74
2022/11/06 12:28:13;;;;;;;5.72;1.80;;;13.10;99.90;;;;;;4972937;28;20102;-75
2022/11/06 12:30:43;;;;;;;7.38;1.90;;;13.00;99.90;;;;;;4973671;28;20121;-73
2022/11/06 12:33:20;;;;;;;7.85;1.80;;;13.00;99.90;;;;;;4955949;28;20057;-73
2022/11/06 12:35:54;;;;;;;9.52;1.92;;;13.00;99.90;;;;;;4978157;28;20462;-73
2022/11/06 12:38:59;;;;;;;6.22;1.77;;;13.00;99.90;;;;;;4978252;28;20058;-74
2022/11/06 12:41:33;;;;;;;9.32;2.10;;;13.00;99.90;;;;;;4965444;28;20047;-72
2022/11/06 12:43:59;;;;;;;7.80;1.83;;;13.00;99.90;;;;;;4973082;28;20070;-74
2022/11/06 12:46:27;;;;;;;6.78;1.60;;;13.10;99.90;;;;;;4957374;28;20050;-73
2022/11/06 12:49:31;;;;;;;7.75;1.70;;;13.10;99.90;;;;;;4972947;28;20050;-74
2022/11/06 12:52:32;;;;;;;7.43;1.90;;;13.10;99.90;;;;;;4972851;28;20050;-74
2022/11/06 12:55:00;;;;;;;7.88;2.10;;;13.00;99.90;;;;;;4952291;28;20050;-74
2022/11/06 12:57:46;;;;;;;6.03;1.80;;;13.00;99.90;;;;;;4969263;28;20079;-74
2022/11/06 13:00:23;;;;;;;7.10;1.75;;;12.90;99.90;;;;;;4968613;28;20557;-74
2022/11/06 13:03:13;;;;;;;6.95;1.77;;;12.80;99.90;;;;;;4956855;28;20054;-74
2022/11/06 13:05:52;;;;;;;6.78;1.83;;;12.80;99.90;;;;;;4972669;28;20047;-73
2022/11/06 13:08:20;;;;;;;8.02;1.80;;;12.80;99.90;;;;;;4972483;28;20058;-74
2022/11/06 13:10:55;;;;;;;7.50;1.83;;;12.80;99.90;;;;;;4973008;28;20553;-73
2022/11/06 13:13:42;;;;;;;7.18;2.00;;;12.70;99.90;;;;;;4972372;28;20058;-73
2022/11/06 13:16:25;;;;;;;7.40;1.83;;;12.70;99.90;;;;;;4957024;28;20055;-75
2022/11/06 13:19:19;;;;;;;8.00;1.70;;;12.60;99.90;;;;;;4972007;28;20039;-73